createdAt,value
2019-05-12T00:00:02.975Z,0
2019-05-12T00:05:03.100Z,0
2019-05-12T00:10:02.577Z,0
2019-05-12T00:15:03.166Z,0
2019-05-12T00:20:02.684Z,0
2019-05-12T00:25:03.234Z,0
2019-05-12T00:30:02.696Z,0
2019-05-12T00:35:03.203Z,0
2019-05-12T00:40:02.682Z,0
2019-05-12T00:45:03.107Z,0
2019-05-12T00:50:02.539Z,0
2019-05-12T00:55:02.991Z,0
2019-05-12T01:00:02.509Z,0
2019-05-12T01:05:02.959Z,0
2019-05-12T01:10:04.762Z,0
2019-05-12T01:15:02.505Z,0
2019-05-12T01:20:03.054Z,0
2019-05-12T01:25:02.483Z,0
2019-05-12T01:30:03.034Z,0
2019-05-12T01:35:02.471Z,0
2019-05-12T01:40:02.931Z,0
2019-05-12T01:45:03.435Z,0
2019-05-12T01:50:02.946Z,0
2019-05-12T01:55:03.398Z,0
2019-05-12T02:00:02.918Z,0
2019-05-12T02:05:03.498Z,0
2019-05-12T02:10:03.013Z,0
2019-05-12T02:15:01.694Z,0
2019-05-12T02:20:03.152Z,0
2019-05-12T02:25:02.580Z,0
2019-05-12T02:30:03.016Z,0
2019-05-12T02:35:05.687Z,0
2019-05-12T02:40:04.792Z,0
2019-05-12T02:45:05.583Z,0
2019-05-12T02:50:05.303Z,0
2019-05-12T02:55:05.854Z,0
2019-05-12T03:00:05.047Z,0
2019-05-12T03:05:05.578Z,1
2019-05-12T03:10:04.939Z,2
2019-05-12T03:15:05.410Z,4
2019-05-12T03:20:04.960Z,9
2019-05-12T03:25:11.334Z,18
2019-05-12T03:30:10.042Z,27
2019-05-12T03:35:08.119Z,52
2019-05-12T03:40:05.238Z,65
2019-05-12T03:46:06.803Z,87
2019-05-12T03:50:04.618Z,130
2019-05-12T03:55:05.614Z,234
2019-05-12T04:00:05.183Z,318
2019-05-12T04:05:05.329Z,384
2019-05-12T04:10:05.207Z,442
2019-05-12T04:15:05.205Z,476
2019-05-12T04:20:04.739Z,562
2019-05-12T04:25:05.725Z,693
2019-05-12T04:31:08.120Z,909
2019-05-12T04:35:04.689Z,945
2019-05-12T04:40:05.293Z,1000
2019-05-12T04:45:04.412Z,1000
2019-05-12T04:50:05.421Z,1000
2019-05-12T04:55:04.731Z,1000
2019-05-12T05:00:05.083Z,1000
2019-05-12T05:05:05.417Z,1000
2019-05-12T05:10:04.642Z,1000
2019-05-12T05:15:05.426Z,1000
2019-05-12T05:20:04.065Z,2000
2019-05-12T05:25:04.131Z,1000
2019-05-12T05:30:03.977Z,1000
2019-05-12T05:35:03.944Z,1000
2019-05-12T05:40:03.961Z,1000
2019-05-12T05:45:04.752Z,1000
2019-05-12T05:50:04.764Z,1000
2019-05-12T05:55:05.819Z,3000
2019-05-12T06:00:07.321Z,2000
2019-05-12T06:05:04.406Z,2000
2019-05-12T06:10:04.076Z,4000
2019-05-12T06:15:04.158Z,5000
2019-05-12T06:20:04.367Z,4000
2019-05-12T06:25:04.773Z,4000
2019-05-12T06:30:05.857Z,2000
2019-05-12T06:35:04.635Z,1000
2019-05-12T06:40:03.678Z,1000
2019-05-12T06:45:03.747Z,1000
2019-05-12T06:50:03.887Z,1000
2019-05-12T06:55:03.966Z,2000
2019-05-12T07:00:04.583Z,2000
2019-05-12T07:05:04.384Z,2000
2019-05-12T07:10:12.040Z,2000
2019-05-12T07:15:03.875Z,2000
2019-05-12T07:20:03.965Z,3000
2019-05-12T07:25:04.515Z,3000
2019-05-12T07:30:04.769Z,2000
2019-05-12T07:35:03.856Z,3000
2019-05-12T07:40:04.790Z,3000
2019-05-12T07:45:03.925Z,3000
2019-05-12T07:50:04.439Z,6000
2019-05-12T07:55:04.307Z,5000
2019-05-12T08:00:03.653Z,4000
2019-05-12T08:05:03.822Z,5000
2019-05-12T08:10:07.354Z,6000
2019-05-12T08:15:05.471Z,6000
2019-05-12T08:20:04.481Z,5000
2019-05-12T08:25:04.210Z,35000
2019-05-12T08:30:06.010Z,30000
2019-05-12T08:35:04.980Z,41000
2019-05-12T08:40:05.960Z,42000
2019-05-12T08:45:04.506Z,43000
2019-05-12T08:50:04.794Z,39000
2019-05-12T08:55:04.252Z,42000
2019-05-12T09:00:08.160Z,43000
2019-05-12T09:05:04.618Z,45000
2019-05-12T09:10:04.131Z,45000
2019-05-12T09:15:04.801Z,44000
2019-05-12T09:20:06.919Z,43000
2019-05-12T09:25:06.365Z,45000
2019-05-12T09:30:08.025Z,54000
2019-05-12T09:35:04.027Z,27000
2019-05-12T09:40:04.574Z,55000
2019-05-12T09:45:08.081Z,14000
2019-05-12T09:50:04.356Z,7000
2019-05-12T09:55:04.245Z,54000
2019-05-12T10:00:04.446Z,9000
2019-05-12T10:07:13.995Z,11000
2019-05-12T10:10:03.665Z,18000
2019-05-12T10:15:04.306Z,22000
2019-05-12T10:20:02.895Z,40000
2019-05-12T10:25:04.059Z,22000
2019-05-12T10:30:11.451Z,14000
2019-05-12T10:35:02.999Z,41000
2019-05-12T10:40:03.729Z,19000
2019-05-12T10:45:04.197Z,10000
2019-05-12T10:50:02.889Z,58000
2019-05-12T10:55:04.481Z,37000
2019-05-12T11:00:04.151Z,16000
2019-05-12T11:05:02.720Z,11000
2019-05-12T11:15:06.796Z,14000
2019-05-12T11:20:04.121Z,11000
2019-05-12T11:25:04.269Z,10000
2019-05-12T11:30:04.335Z,35000
2019-05-12T11:35:04.109Z,13000
2019-05-12T11:40:04.321Z,6000
2019-05-12T11:45:02.971Z,4000
2019-05-12T11:50:05.051Z,3000
2019-05-12T11:55:02.447Z,3000
2019-05-12T12:00:05.319Z,4000
2019-05-12T12:05:02.993Z,7000
2019-05-12T12:10:03.597Z,11000
2019-05-12T12:15:04.665Z,42000
2019-05-12T12:20:03.739Z,39000
2019-05-12T12:30:15.760Z,8000
2019-05-12T12:35:07.322Z,27000
2019-05-12T12:40:04.277Z,37000
2019-05-12T12:45:04.257Z,7000
2019-05-12T12:50:04.056Z,30000
2019-05-12T12:55:05.273Z,39000
2019-05-12T13:00:03.835Z,35000
2019-05-12T13:05:03.386Z,36000
2019-05-12T13:10:07.705Z,37000
2019-05-12T13:15:03.826Z,38000
2019-05-12T13:20:02.490Z,36000
2019-05-12T13:25:04.554Z,36000
2019-05-12T13:30:05.261Z,11000
2019-05-12T13:35:04.212Z,4000
2019-05-12T13:40:02.893Z,32000
2019-05-12T13:45:03.759Z,31000
2019-05-12T13:50:04.038Z,31000
2019-05-12T13:55:05.602Z,6000
2019-05-12T14:00:08.660Z,7000
2019-05-12T14:05:08.793Z,4000
2019-05-12T14:10:03.657Z,5000
2019-05-12T14:15:03.237Z,5000
2019-05-12T14:20:04.062Z,5000
2019-05-12T14:25:02.612Z,29000
2019-05-12T14:30:09.896Z,30000
2019-05-12T14:35:04.280Z,27000
2019-05-12T14:40:04.515Z,25000
2019-05-12T14:45:04.677Z,14000
2019-05-12T14:50:04.039Z,9000
2019-05-12T14:55:03.391Z,8000
2019-05-12T15:00:04.049Z,7000
2019-05-12T15:05:06.614Z,6000
2019-05-12T15:10:08.267Z,5000
2019-05-12T15:15:03.806Z,5000
2019-05-12T15:20:06.600Z,5000
2019-05-12T15:25:05.350Z,4000
2019-05-12T15:30:04.200Z,4000
2019-05-12T15:35:02.751Z,3000
2019-05-12T15:40:04.294Z,4000
2019-05-12T15:45:06.509Z,5000
2019-05-12T15:50:04.065Z,6000
2019-05-12T15:55:04.666Z,7000
2019-05-12T16:00:04.958Z,19000
2019-05-12T16:05:04.125Z,19000
2019-05-12T16:10:04.257Z,20000
2019-05-12T16:15:04.565Z,18000
2019-05-12T16:20:03.763Z,7000
2019-05-12T16:25:04.290Z,6000
2019-05-12T16:30:04.768Z,3000
2019-05-12T16:35:07.297Z,3000
2019-05-12T16:40:04.449Z,3000
2019-05-12T16:45:08.211Z,3000
2019-05-12T16:50:07.532Z,4000
2019-05-12T16:55:03.698Z,4000
2019-05-12T17:00:07.064Z,3000
2019-05-12T17:05:08.958Z,2000
2019-05-12T17:10:11.731Z,2000
2019-05-12T17:15:04.065Z,8000
2019-05-12T17:20:04.444Z,5000
2019-05-12T17:25:04.813Z,2000
2019-05-12T17:30:04.435Z,9000
2019-05-12T17:35:04.203Z,9000
2019-05-12T17:40:03.717Z,7000
2019-05-12T17:45:03.912Z,6000
2019-05-12T17:50:06.808Z,7000
2019-05-12T17:55:08.474Z,6000
2019-05-12T18:00:06.265Z,6000
2019-05-12T18:05:07.606Z,5000
2019-05-12T18:10:04.182Z,4000
2019-05-12T18:15:04.244Z,4000
2019-05-12T18:20:04.177Z,4000
2019-05-12T18:25:05.493Z,3000
2019-05-12T18:30:04.508Z,2000
2019-05-12T18:35:04.232Z,1000
2019-05-12T18:40:04.121Z,834
2019-05-12T18:45:11.951Z,709
2019-05-12T18:50:04.478Z,609
2019-05-12T18:55:04.299Z,499
2019-05-12T19:00:06.446Z,403
2019-05-12T19:05:04.446Z,316
2019-05-12T19:10:03.731Z,222
2019-05-12T19:15:04.614Z,113
2019-05-12T19:20:05.221Z,81
2019-05-12T19:25:04.003Z,65
2019-05-12T19:30:04.258Z,55
2019-05-12T19:35:03.728Z,41
2019-05-12T19:40:11.703Z,27
2019-05-12T19:47:13.653Z,14
2019-05-12T19:50:08.853Z,8
2019-05-12T19:55:03.658Z,3
2019-05-12T20:00:04.510Z,1
2019-05-12T20:05:04.597Z,0
2019-05-12T20:10:04.678Z,0
2019-05-12T20:15:03.956Z,0
2019-05-12T20:20:04.781Z,0
2019-05-12T20:25:04.266Z,0
2019-05-12T20:30:08.886Z,0
2019-05-12T20:35:04.221Z,0
2019-05-12T20:40:05.352Z,0
2019-05-12T20:45:05.171Z,0
2019-05-12T20:50:04.422Z,0
2019-05-12T20:55:03.697Z,0
2019-05-12T21:00:04.721Z,0
2019-05-12T21:05:09.569Z,0
2019-05-12T21:10:04.074Z,0
2019-05-12T21:15:15.664Z,0
2019-05-12T21:20:04.476Z,0
2019-05-12T21:25:04.186Z,0
2019-05-12T21:30:10.036Z,0
2019-05-12T21:35:15.858Z,0
2019-05-12T21:40:03.623Z,0
2019-05-12T21:45:04.669Z,0
2019-05-12T21:50:03.652Z,0
2019-05-12T21:55:03.799Z,0
2019-05-12T22:00:04.835Z,0
2019-05-12T22:05:04.302Z,0
2019-05-12T22:10:04.759Z,0
2019-05-12T22:15:03.863Z,0
2019-05-12T22:20:08.484Z,0
2019-05-12T22:25:03.095Z,0
2019-05-12T22:30:04.398Z,0
2019-05-12T22:35:03.922Z,0
2019-05-12T22:40:06.169Z,0
2019-05-12T22:45:03.863Z,0
2019-05-12T22:50:04.169Z,0
2019-05-12T22:55:03.603Z,0
2019-05-12T23:00:07.504Z,0
2019-05-12T23:05:03.667Z,0
2019-05-12T23:10:07.042Z,0
2019-05-12T23:15:07.186Z,0
2019-05-12T23:20:04.765Z,0
2019-05-12T23:25:04.030Z,0
2019-05-12T23:30:10.798Z,0
2019-05-12T23:35:03.885Z,0
2019-05-12T23:40:04.371Z,0
2019-05-12T23:45:03.625Z,0
2019-05-12T23:50:04.031Z,0
2019-05-12T23:55:02.675Z,0
